sensor_id;sensor_type;location;lat;lon;timestamp;pressure;altitude;pressure_sealevel;temperature;humidity
77047;BME280;65977;56.380;44.022;2023-01-19T00:02:18;101870.25;;;-2.71;51.55
77047;BME280;65977;56.380;44.022;2023-01-19T00:04:44;101871.03;;;-2.63;51.48
77047;BME280;65977;56.380;44.022;2023-01-19T00:07:10;101857.22;;;-2.64;50.92
77047;BME280;65977;56.380;44.022;2023-01-19T00:09:36;101860.66;;;-2.62;50.85
77047;BME280;65977;56.380;44.022;2023-01-19T00:12:05;101868.41;;;-2.60;51.16
77047;BME280;65977;56.380;44.022;2023-01-19T00:14:31;101846.00;;;-2.61;50.25
77047;BME280;65977;56.380;44.022;2023-01-19T00:16:57;101873.66;;;-2.69;50.05
77047;BME280;65977;56.380;44.022;2023-01-19T00:19:22;101861.56;;;-2.66;50.16
77047;BME280;65977;56.380;44.022;2023-01-19T00:21:48;101866.69;;;-2.61;49.95
77047;BME280;65977;56.380;44.022;2023-01-19T00:24:14;101846.03;;;-2.63;49.23
77047;BME280;65977;56.380;44.022;2023-01-19T00:26:40;101840.75;;;-2.57;49.73
77047;BME280;65977;56.380;44.022;2023-01-19T00:29:10;101839.94;;;-2.62;48.69
77047;BME280;65977;56.380;44.022;2023-01-19T00:31:36;101839.09;;;-2.61;48.52
77047;BME280;65977;56.380;44.022;2023-01-19T00:34:03;101839.91;;;-2.56;48.49
77047;BME280;65977;56.380;44.022;2023-01-19T00:36:29;101833.03;;;-2.58;48.15
77047;BME280;65977;56.380;44.022;2023-01-19T00:38:55;101843.31;;;-2.53;47.77
77047;BME280;65977;56.380;44.022;2023-01-19T00:41:21;101849.34;;;-2.53;47.16
77047;BME280;65977;56.380;44.022;2023-01-19T00:44:07;101846.00;;;-2.60;46.89
77047;BME280;65977;56.380;44.022;2023-01-19T00:46:33;101843.34;;;-2.55;46.52
77047;BME280;65977;56.380;44.022;2023-01-19T00:48:59;101835.56;;;-2.52;46.49
77047;BME280;65977;56.380;44.022;2023-01-19T00:51:24;101837.22;;;-2.48;46.84
77047;BME280;65977;56.380;44.022;2023-01-19T00:53:50;101832.16;;;-2.59;45.97
77047;BME280;65977;56.380;44.022;2023-01-19T00:56:16;101832.09;;;-2.54;45.60
77047;BME280;65977;56.380;44.022;2023-01-19T00:58:42;101826.09;;;-2.54;45.03
77047;BME280;65977;56.380;44.022;2023-01-19T01:01:10;101813.16;;;-2.56;45.35
77047;BME280;65977;56.380;44.022;2023-01-19T01:03:36;101808.81;;;-2.52;45.22
77047;BME280;65977;56.380;44.022;2023-01-19T01:06:02;101820.94;;;-2.54;44.38
77047;BME280;65977;56.380;44.022;2023-01-19T01:08:31;101806.22;;;-2.52;45.28
77047;BME280;65977;56.380;44.022;2023-01-19T01:10:57;101819.94;;;-2.46;44.66
77047;BME280;65977;56.380;44.022;2023-01-19T01:13:23;101820.84;;;-2.48;44.11
77047;BME280;65977;56.380;44.022;2023-01-19T01:15:50;101819.94;;;-2.44;44.38
77047;BME280;65977;56.380;44.022;2023-01-19T01:18:16;101813.91;;;-2.45;44.05
77047;BME280;65977;56.380;44.022;2023-01-19T01:20:42;101793.28;;;-2.54;43.51
77047;BME280;65977;56.380;44.022;2023-01-19T01:23:08;101798.41;;;-2.48;44.14
77047;BME280;65977;56.380;44.022;2023-01-19T01:25:33;101798.41;;;-2.48;43.37
77047;BME280;65977;56.380;44.022;2023-01-19T01:28:05;101804.41;;;-2.44;43.24
77047;BME280;65977;56.380;44.022;2023-01-19T01:30:36;101815.66;;;-2.47;43.61
77047;BME280;65977;56.380;44.022;2023-01-19T01:33:06;101809.53;;;-2.41;43.87
77047;BME280;65977;56.380;44.022;2023-01-19T01:35:32;101800.94;;;-2.42;43.13
77047;BME280;65977;56.380;44.022;2023-01-19T01:37:59;101809.53;;;-2.40;43.19
77047;BME280;65977;56.380;44.022;2023-01-19T01:40:26;101805.22;;;-2.39;43.27
77047;BME280;65977;56.380;44.022;2023-01-19T01:42:51;101819.91;;;-2.43;42.73
77047;BME280;65977;56.380;44.022;2023-01-19T01:45:32;101809.53;;;-2.40;42.77
77047;BME280;65977;56.380;44.022;2023-01-19T01:50:52;101799.97;;;-2.36;42.87
77047;BME280;65977;56.380;44.022;2023-01-19T01:53:38;101796.56;;;-2.38;42.64
77047;BME280;65977;56.380;44.022;2023-01-19T01:56:09;101801.75;;;-2.41;42.51
77047;BME280;65977;56.380;44.022;2023-01-19T01:58:38;101791.41;;;-2.40;42.48
77047;BME280;65977;56.380;44.022;2023-01-19T02:01:05;101790.47;;;-2.34;42.53
77047;BME280;65977;56.380;44.022;2023-01-19T02:03:49;101792.22;;;-2.36;42.66
77047;BME280;65977;56.380;44.022;2023-01-19T02:06:15;101790.53;;;-2.40;42.53
77047;BME280;65977;56.380;44.022;2023-01-19T02:08:49;101804.28;;;-2.35;42.61
77047;BME280;65977;56.380;44.022;2023-01-19T02:11:35;101788.72;;;-2.34;42.36
77047;BME280;65977;56.380;44.022;2023-01-19T02:14:19;101783.50;;;-2.31;42.56
77047;BME280;65977;56.380;44.022;2023-01-19T02:16:46;101799.94;;;-2.32;42.10
77047;BME280;65977;56.380;44.022;2023-01-19T02:19:20;101792.13;;;-2.30;42.00
77047;BME280;65977;56.380;44.022;2023-01-19T02:24:18;101780.09;;;-2.33;42.09
77047;BME280;65977;56.380;44.022;2023-01-19T02:26:46;101792.09;;;-2.27;42.32
77047;BME280;65977;56.380;44.022;2023-01-19T02:29:16;101782.63;;;-2.27;41.78
77047;BME280;65977;56.380;44.022;2023-01-19T02:31:42;101780.00;;;-2.25;42.00
77047;BME280;65977;56.380;44.022;2023-01-19T02:34:13;101786.00;;;-2.23;41.67
77047;BME280;65977;56.380;44.022;2023-01-19T02:36:44;101782.56;;;-2.24;42.17
77047;BME280;65977;56.380;44.022;2023-01-19T02:39:13;101776.56;;;-2.27;41.41
77047;BME280;65977;56.380;44.022;2023-01-19T02:41:46;101781.72;;;-2.24;41.82
77047;BME280;65977;56.380;44.022;2023-01-19T02:44:16;101778.22;;;-2.22;41.60
77047;BME280;65977;56.380;44.022;2023-01-19T02:46:43;101779.09;;;-2.21;41.89
77047;BME280;65977;56.380;44.022;2023-01-19T02:49:09;101778.19;;;-2.20;41.73
77047;BME280;65977;56.380;44.022;2023-01-19T02:51:35;101792.13;;;-2.29;41.57
77047;BME280;65977;56.380;44.022;2023-01-19T03:17:08;101765.38;;;-2.29;40.96
77047;BME280;65977;56.380;44.022;2023-01-19T03:19:22;101767.88;;;-2.22;41.49
77047;BME280;65977;56.380;44.022;2023-01-19T03:21:55;101775.78;;;-2.34;40.45
77047;BME280;65977;56.380;44.022;2023-01-19T03:24:24;101776.59;;;-2.30;40.91
77047;BME280;65977;56.380;44.022;2023-01-19T03:26:56;101786.97;;;-2.30;40.70
77047;BME280;65977;56.380;44.022;2023-01-19T03:29:23;101775.75;;;-2.31;40.78
77047;BME280;65977;56.380;44.022;2023-01-19T03:31:53;101771.38;;;-2.26;40.88
77047;BME280;65977;56.380;44.022;2023-01-19T03:34:22;101785.22;;;-2.30;40.87
77047;BME280;65977;56.380;44.022;2023-01-19T03:36:55;101787.00;;;-2.32;40.87
77047;BME280;65977;56.380;44.022;2023-01-19T03:39:23;101789.63;;;-2.35;40.32
77047;BME280;65977;56.380;44.022;2023-01-19T03:42:05;101786.16;;;-2.35;40.18
77047;BME280;65977;56.380;44.022;2023-01-19T03:44:36;101789.63;;;-2.35;40.34
77047;BME280;65977;56.380;44.022;2023-01-19T03:47:03;101793.94;;;-2.35;40.48
77047;BME280;65977;56.380;44.022;2023-01-19T03:49:31;101793.09;;;-2.37;39.80
77047;BME280;65977;56.380;44.022;2023-01-19T03:51:59;101781.91;;;-2.41;39.96
77047;BME280;65977;56.380;44.022;2023-01-19T03:54:25;101795.69;;;-2.37;39.79
77047;BME280;65977;56.380;44.022;2023-01-19T03:56:51;101791.38;;;-2.38;40.14
77047;BME280;65977;56.380;44.022;2023-01-19T03:59:17;101790.53;;;-2.40;40.21
77047;BME280;65977;56.380;44.022;2023-01-19T04:01:45;101773.31;;;-2.43;40.31
77047;BME280;65977;56.380;44.022;2023-01-19T04:04:11;101797.47;;;-2.42;39.80
77047;BME280;65977;56.380;44.022;2023-01-19T04:06:38;101788.88;;;-2.44;39.46
77047;BME280;65977;56.380;44.022;2023-01-19T04:09:04;101774.25;;;-2.47;39.87
77047;BME280;65977;56.380;44.022;2023-01-19T04:11:29;101782.81;;;-2.42;39.54
77047;BME280;65977;56.380;44.022;2023-01-19T04:13:56;101792.31;;;-2.42;39.45
77047;BME280;65977;56.380;44.022;2023-01-19T04:16:22;101788.84;;;-2.43;39.36
77047;BME280;65977;56.380;44.022;2023-01-19T04:18:48;101775.91;;;-2.43;39.77
77047;BME280;65977;56.380;44.022;2023-01-19T04:21:15;101784.53;;;-2.44;39.18
77047;BME280;65977;56.380;44.022;2023-01-19T04:23:41;101796.63;;;-2.43;39.62
77047;BME280;65977;56.380;44.022;2023-01-19T04:26:09;101786.31;;;-2.44;39.80
77047;BME280;65977;56.380;44.022;2023-01-19T04:28:35;101794.09;;;-2.47;39.42
77047;BME280;65977;56.380;44.022;2023-01-19T04:31:02;101786.34;;;-2.49;39.57
77047;BME280;65977;56.380;44.022;2023-01-19T04:33:28;101788.13;;;-2.54;39.56
77047;BME280;65977;56.380;44.022;2023-01-19T04:35:54;101786.41;;;-2.53;39.63
77047;BME280;65977;56.380;44.022;2023-01-19T04:38:21;101797.56;;;-2.51;39.26
77047;BME280;65977;56.380;44.022;2023-01-19T04:40:47;101794.19;;;-2.55;38.88
77047;BME280;65977;56.380;44.022;2023-01-19T04:43:14;101800.22;;;-2.54;38.87
77047;BME280;65977;56.380;44.022;2023-01-19T04:45:40;101795.00;;;-2.51;39.31
77047;BME280;65977;56.380;44.022;2023-01-19T04:48:05;101795.84;;;-2.51;38.69
77047;BME280;65977;56.380;44.022;2023-01-19T04:50:31;101795.00;;;-2.51;39.25
77047;BME280;65977;56.380;44.022;2023-01-19T04:52:57;101793.25;;;-2.51;38.88
77047;BME280;65977;56.380;44.022;2023-01-19T04:55:23;101789.88;;;-2.54;38.95
77047;BME280;65977;56.380;44.022;2023-01-19T04:57:50;101787.28;;;-2.54;38.82
77047;BME280;65977;56.380;44.022;2023-01-19T05:00:16;101785.53;;;-2.54;38.66
77047;BME280;65977;56.380;44.022;2023-01-19T05:02:42;101785.50;;;-2.49;39.13
77047;BME280;65977;56.380;44.022;2023-01-19T05:05:10;101782.03;;;-2.48;38.85
77047;BME280;65977;56.380;44.022;2023-01-19T05:07:36;101784.63;;;-2.50;38.04
77047;BME280;65977;56.380;44.022;2023-01-19T05:10:03;101789.72;;;-2.44;38.53
77047;BME280;65977;56.380;44.022;2023-01-19T05:12:29;101780.31;;;-2.49;38.01
77047;BME280;65977;56.380;44.022;2023-01-19T05:14:55;101789.78;;;-2.48;37.87
77047;BME280;65977;56.380;44.022;2023-01-19T05:17:21;101791.53;;;-2.50;37.89
77047;BME280;65977;56.380;44.022;2023-01-19T05:19:47;101797.56;;;-2.50;38.15
77047;BME280;65977;56.380;44.022;2023-01-19T05:22:13;101794.13;;;-2.50;38.12
77047;BME280;65977;56.380;44.022;2023-01-19T05:24:39;101783.81;;;-2.53;37.95
77047;BME280;65977;56.380;44.022;2023-01-19T05:27:05;101792.47;;;-2.56;38.07
77047;BME280;65977;56.380;44.022;2023-01-19T05:29:31;101801.06;;;-2.54;37.98
77047;BME280;65977;56.380;44.022;2023-01-19T05:31:57;101791.50;;;-2.49;38.04
77047;BME280;65977;56.380;44.022;2023-01-19T05:34:23;101793.16;;;-2.42;38.29
77047;BME280;65977;56.380;44.022;2023-01-19T05:36:48;101796.59;;;-2.41;37.98
77047;BME280;65977;56.380;44.022;2023-01-19T05:39:14;101791.31;;;-2.34;38.15
77047;BME280;65977;56.380;44.022;2023-01-19T05:41:40;101788.81;;;-2.40;38.15
77047;BME280;65977;56.380;44.022;2023-01-19T05:44:10;101800.75;;;-2.31;37.56
77047;BME280;65977;56.380;44.022;2023-01-19T05:46:37;101792.09;;;-2.27;37.73
77047;BME280;65977;56.380;44.022;2023-01-19T05:49:03;101791.16;;;-2.23;37.72
77047;BME280;65977;56.380;44.022;2023-01-19T05:51:30;101790.16;;;-2.12;37.39
77047;BME280;65977;56.380;44.022;2023-01-19T05:54:06;101782.25;;;-2.01;37.56
77047;BME280;65977;56.380;44.022;2023-01-19T05:56:33;101797.69;;;-1.95;36.73
77047;BME280;65977;56.380;44.022;2023-01-19T05:59:00;101800.19;;;-1.91;36.84
77047;BME280;65977;56.380;44.022;2023-01-19T06:01:26;101794.13;;;-1.88;35.98
77047;BME280;65977;56.380;44.022;2023-01-19T06:03:52;101794.81;;;-1.77;36.58
77047;BME280;65977;56.380;44.022;2023-01-19T06:06:19;101765.34;;;-1.70;35.57
77047;BME280;65977;56.380;44.022;2023-01-19T06:08:45;101781.56;;;-1.07;36.10
77047;BME280;65977;56.380;44.022;2023-01-19T06:11:11;101756.25;;;-0.13;33.37
77047;BME280;65977;56.380;44.022;2023-01-19T06:13:37;101756.06;;;0.97;31.92
77047;BME280;65977;56.380;44.022;2023-01-19T06:16:06;101760.03;;;2.00;30.99
77047;BME280;65977;56.380;44.022;2023-01-19T06:18:32;101762.97;;;2.94;29.14
77047;BME280;65977;56.380;44.022;2023-01-19T06:21:02;101761.72;;;3.75;27.06
77047;BME280;65977;56.380;44.022;2023-01-19T06:23:29;101752.53;;;4.52;25.71
77047;BME280;65977;56.380;44.022;2023-01-19T06:25:55;101774.56;;;5.08;25.07
77047;BME280;65977;56.380;44.022;2023-01-19T06:28:21;101764.44;;;5.58;23.85
77047;BME280;65977;56.380;44.022;2023-01-19T06:30:48;101756.97;;;6.23;24.05
77047;BME280;65977;56.380;44.022;2023-01-19T06:33:15;101760.56;;;6.74;23.65
77047;BME280;65977;56.380;44.022;2023-01-19T06:35:45;101755.16;;;6.60;22.93
77047;BME280;65977;56.380;44.022;2023-01-19T06:38:12;101753.00;;;5.40;23.80
77047;BME280;65977;56.380;44.022;2023-01-19T06:40:41;101754.50;;;4.67;25.63
77047;BME280;65977;56.380;44.022;2023-01-19T06:43:07;101741.94;;;3.91;26.42
77047;BME280;65977;56.380;44.022;2023-01-19T06:45:33;101749.16;;;3.15;26.80
77047;BME280;65977;56.380;44.022;2023-01-19T06:47:59;101761.31;;;2.67;27.58
77047;BME280;65977;56.380;44.022;2023-01-19T06:50:26;101768.44;;;2.35;27.90
77047;BME280;65977;56.380;44.022;2023-01-19T06:52:52;101768.22;;;2.68;28.29
77047;BME280;65977;56.380;44.022;2023-01-19T06:55:18;101781.09;;;2.98;27.69
77047;BME280;65977;56.380;44.022;2023-01-19T06:57:44;101800.00;;;3.30;27.28
77047;BME280;65977;56.380;44.022;2023-01-19T07:00:11;101790.13;;;3.38;26.92
77047;BME280;65977;56.380;44.022;2023-01-19T07:02:40;101788.25;;;3.41;27.33
77047;BME280;65977;56.380;44.022;2023-01-19T07:05:07;101771.47;;;3.24;27.30
77047;BME280;65977;56.380;44.022;2023-01-19T07:07:34;101783.00;;;2.93;27.43
77047;BME280;65977;56.380;44.022;2023-01-19T07:10:00;101785.09;;;2.84;28.04
77047;BME280;65977;56.380;44.022;2023-01-19T07:12:26;101795.94;;;2.45;27.59
77047;BME280;65977;56.380;44.022;2023-01-19T07:14:51;101798.25;;;2.28;28.17
77047;BME280;65977;56.380;44.022;2023-01-19T07:17:17;101779.53;;;2.14;28.25
77047;BME280;65977;56.380;44.022;2023-01-19T07:19:43;101793.91;;;2.27;28.34
77047;BME280;65977;56.380;44.022;2023-01-19T07:22:09;101793.50;;;2.39;27.73
77047;BME280;65977;56.380;44.022;2023-01-19T07:24:35;101778.06;;;3.34;27.02
77047;BME280;65977;56.380;44.022;2023-01-19T07:27:02;101784.28;;;4.64;25.44
77047;BME280;65977;56.380;44.022;2023-01-19T07:29:29;101765.03;;;5.26;24.53
77047;BME280;65977;56.380;44.022;2023-01-19T07:31:55;101753.56;;;5.28;25.60
77047;BME280;65977;56.380;44.022;2023-01-19T07:34:21;101759.03;;;4.83;25.29
77047;BME280;65977;56.380;44.022;2023-01-19T07:36:46;101752.09;;;4.40;25.61
77047;BME280;65977;56.380;44.022;2023-01-19T07:39:12;101764.59;;;3.91;26.30
77047;BME280;65977;56.380;44.022;2023-01-19T07:41:39;101750.69;;;3.67;27.18
77047;BME280;65977;56.380;44.022;2023-01-19T07:44:04;101766.84;;;3.32;27.16
77047;BME280;65977;56.380;44.022;2023-01-19T07:46:30;101773.94;;;3.03;27.85
77047;BME280;65977;56.380;44.022;2023-01-19T07:48:56;101772.03;;;2.84;28.75
77047;BME280;65977;56.380;44.022;2023-01-19T07:51:21;101771.44;;;2.49;28.56
77047;BME280;65977;56.380;44.022;2023-01-19T07:53:50;101765.22;;;2.27;29.06
77047;BME280;65977;56.380;44.022;2023-01-19T07:56:16;101755.28;;;2.12;29.50
77047;BME280;65977;56.380;44.022;2023-01-19T07:58:41;101752.28;;;1.97;30.33
77047;BME280;65977;56.380;44.022;2023-01-19T08:01:09;101755.44;;;1.80;30.09
77047;BME280;65977;56.380;44.022;2023-01-19T08:03:35;101744.47;;;1.69;30.32
77047;BME280;65977;56.380;44.022;2023-01-19T08:06:01;101748.72;;;1.73;30.29
77047;BME280;65977;56.380;44.022;2023-01-19T08:08:30;101749.91;;;1.61;30.93
77047;BME280;65977;56.380;44.022;2023-01-19T08:10:56;101767.19;;;1.64;30.48
77047;BME280;65977;56.380;44.022;2023-01-19T08:13:22;101773.56;;;1.54;30.75
77047;BME280;65977;56.380;44.022;2023-01-19T08:15:52;101757.31;;;1.46;31.65
77047;BME280;65977;56.380;44.022;2023-01-19T08:18:19;101765.84;;;1.51;31.44
77047;BME280;65977;56.380;44.022;2023-01-19T08:20:44;101776.69;;;1.37;32.00
77047;BME280;65977;56.380;44.022;2023-01-19T08:23:10;101779.78;;;1.50;32.03
77047;BME280;65977;56.380;44.022;2023-01-19T08:25:39;101791.00;;;1.52;31.87
77047;BME280;65977;56.380;44.022;2023-01-19T08:28:07;101787.69;;;1.47;31.67
77047;BME280;65977;56.380;44.022;2023-01-19T08:30:34;101777.84;;;1.56;31.87
77047;BME280;65977;56.380;44.022;2023-01-19T08:33:00;101797.09;;;1.51;31.79
77047;BME280;65977;56.380;44.022;2023-01-19T08:35:33;101850.59;;;1.32;31.36
77047;BME280;65977;56.380;44.022;2023-01-19T08:38:01;101832.16;;;1.39;31.69
77047;BME280;65977;56.380;44.022;2023-01-19T08:40:28;101837.03;;;1.51;32.03
77047;BME280;65977;56.380;44.022;2023-01-19T08:42:58;101839.13;;;1.39;31.65
77047;BME280;65977;56.380;44.022;2023-01-19T08:45:38;101851.34;;;1.37;31.71
77047;BME280;65977;56.380;44.022;2023-01-19T08:48:11;101849.31;;;1.46;32.26
77047;BME280;65977;56.380;44.022;2023-01-19T08:50:38;101856.53;;;1.37;31.57
77047;BME280;65977;56.380;44.022;2023-01-19T08:53:04;101840.47;;;1.21;31.98
77047;BME280;65977;56.380;44.022;2023-01-19T08:55:36;101855.22;;;1.20;31.73
77047;BME280;65977;56.380;44.022;2023-01-19T08:58:03;101864.09;;;1.13;32.06
77047;BME280;65977;56.380;44.022;2023-01-19T09:00:30;101859.34;;;0.95;32.30
77047;BME280;65977;56.380;44.022;2023-01-19T09:02:58;101827.53;;;0.86;31.64
77047;BME280;65977;56.380;44.022;2023-01-19T09:05:26;101808.31;;;0.90;32.65
77047;BME280;65977;56.380;44.022;2023-01-19T09:07:51;101812.78;;;0.86;32.38
77047;BME280;65977;56.380;44.022;2023-01-19T09:10:17;101793.91;;;0.78;33.09
77047;BME280;65977;56.380;44.022;2023-01-19T09:12:43;101791.50;;;0.71;33.66
77047;BME280;65977;56.380;44.022;2023-01-19T09:15:11;101822.53;;;0.77;33.26
77047;BME280;65977;56.380;44.022;2023-01-19T09:17:39;101826.16;;;0.71;33.08
77047;BME280;65977;56.380;44.022;2023-01-19T09:20:07;101806.16;;;0.73;33.60
77047;BME280;65977;56.380;44.022;2023-01-19T09:22:33;101796.84;;;0.64;33.98
77047;BME280;65977;56.380;44.022;2023-01-19T09:24:59;101793.28;;;0.67;33.50
77047;BME280;65977;56.380;44.022;2023-01-19T09:27:24;101783.81;;;0.66;33.82
77047;BME280;65977;56.380;44.022;2023-01-19T09:29:50;101803.91;;;0.59;33.75
77047;BME280;65977;56.380;44.022;2023-01-19T09:32:19;101803.78;;;0.64;33.97
77047;BME280;65977;56.380;44.022;2023-01-19T09:34:45;101790.81;;;0.62;34.23
77047;BME280;65977;56.380;44.022;2023-01-19T09:37:11;101777.94;;;0.58;34.24
77047;BME280;65977;56.380;44.022;2023-01-19T09:39:37;101799.59;;;0.58;34.73
77047;BME280;65977;56.380;44.022;2023-01-19T09:42:22;101772.00;;;0.53;34.62
77047;BME280;65977;56.380;44.022;2023-01-19T09:44:49;101783.13;;;0.58;34.90
77047;BME280;65977;56.380;44.022;2023-01-19T09:47:21;101784.81;;;0.59;34.57
77047;BME280;65977;56.380;44.022;2023-01-19T09:49:51;101800.28;;;0.65;34.74
77047;BME280;65977;56.380;44.022;2023-01-19T09:52:18;101833.19;;;0.68;34.81
77047;BME280;65977;56.380;44.022;2023-01-19T09:54:54;101819.97;;;0.75;35.09
77047;BME280;65977;56.380;44.022;2023-01-19T09:57:22;101804.44;;;0.74;35.07
77047;BME280;65977;56.380;44.022;2023-01-19T09:59:48;101817.31;;;0.78;35.47
77047;BME280;65977;56.380;44.022;2023-01-19T10:02:43;101843.94;;;0.88;35.26
77047;BME280;65977;56.380;44.022;2023-01-19T10:08:05;101799.50;;;0.95;35.18
77047;BME280;65977;56.380;44.022;2023-01-19T10:10:35;101802.84;;;1.00;35.23
77047;BME280;65977;56.380;44.022;2023-01-19T10:13:24;101819.25;;;1.02;35.61
77047;BME280;65977;56.380;44.022;2023-01-19T10:16:13;101811.06;;;1.17;35.12
77047;BME280;65977;56.380;44.022;2023-01-19T10:18:46;101825.06;;;1.13;35.32
77047;BME280;65977;56.380;44.022;2023-01-19T10:21:26;101824.13;;;1.16;34.63
77047;BME280;65977;56.380;44.022;2023-01-19T10:26:45;101798.66;;;1.27;34.78
77047;BME280;65977;56.380;44.022;2023-01-19T10:31:52;101838.44;;;1.32;34.03
77047;BME280;65977;56.380;44.022;2023-01-19T10:34:18;101812.44;;;1.31;34.27
77047;BME280;65977;56.380;44.022;2023-01-19T10:36:48;101802.88;;;1.31;33.92
77047;BME280;65977;56.380;44.022;2023-01-19T10:39:27;101804.47;;;1.35;34.27
77047;BME280;65977;56.380;44.022;2023-01-19T10:41:52;101824.69;;;1.27;34.09
77047;BME280;65977;56.380;44.022;2023-01-19T10:44:27;101805.63;;;1.25;34.44
77047;BME280;65977;56.380;44.022;2023-01-19T10:46:55;101808.00;;;1.34;34.61
77047;BME280;65977;56.380;44.022;2023-01-19T10:51:48;101837.72;;;1.27;34.23
77047;BME280;65977;56.380;44.022;2023-01-19T10:54:14;101831.78;;;1.22;34.77
77047;BME280;65977;56.380;44.022;2023-01-19T10:56:40;101835.38;;;1.16;34.28
77047;BME280;65977;56.380;44.022;2023-01-19T11:02:22;101820.25;;;0.98;35.11
77047;BME280;65977;56.380;44.022;2023-01-19T11:04:55;101829.88;;;0.95;35.36
77047;BME280;65977;56.380;44.022;2023-01-19T11:07:30;101827.25;;;0.96;35.00
77047;BME280;65977;56.380;44.022;2023-01-19T11:12:42;101824.25;;;0.78;35.66
77047;BME280;65977;56.380;44.022;2023-01-19T11:17:42;101822.31;;;0.86;35.43
77047;BME280;65977;56.380;44.022;2023-01-19T11:20:22;101822.38;;;0.83;35.47
77047;BME280;65977;56.380;44.022;2023-01-19T11:23:03;101820.59;;;0.85;35.95
77047;BME280;65977;56.380;44.022;2023-01-19T11:25:33;101829.34;;;0.82;35.95
77047;BME280;65977;56.380;44.022;2023-01-19T11:28:01;101827.13;;;0.67;36.60
77047;BME280;65977;56.380;44.022;2023-01-19T11:30:34;101822.53;;;0.77;36.75
77047;BME280;65977;56.380;44.022;2023-01-19T11:32:59;101823.50;;;0.73;36.99
77047;BME280;65977;56.380;44.022;2023-01-19T11:40:39;101814.03;;;0.70;37.01
77047;BME280;65977;56.380;44.022;2023-01-19T11:43:07;101832.88;;;0.80;36.72
77047;BME280;65977;56.380;44.022;2023-01-19T11:45:34;101842.38;;;0.81;37.13
77047;BME280;65977;56.380;44.022;2023-01-19T11:48:03;101849.59;;;0.70;36.67
77047;BME280;65977;56.380;44.022;2023-01-19T11:50:56;101864.28;;;0.72;37.04
77047;BME280;65977;56.380;44.022;2023-01-19T11:53:26;101866.00;;;0.73;37.59
77047;BME280;65977;56.380;44.022;2023-01-19T11:55:57;101870.38;;;0.71;37.16
77047;BME280;65977;56.380;44.022;2023-01-19T11:58:26;101872.13;;;0.71;37.29
77047;BME280;65977;56.380;44.022;2023-01-19T12:03:39;101861.09;;;0.61;37.67
77047;BME280;65977;56.380;44.022;2023-01-19T12:08:36;101867.47;;;0.48;37.90
77047;BME280;65977;56.380;44.022;2023-01-19T12:11:04;101872.69;;;0.46;37.82
77047;BME280;65977;56.380;44.022;2023-01-19T12:13:34;101877.13;;;0.43;38.33
77047;BME280;65977;56.380;44.022;2023-01-19T12:16:07;101864.81;;;0.49;38.50
77047;BME280;65977;56.380;44.022;2023-01-19T12:18:40;101844.66;;;0.59;37.89
77047;BME280;65977;56.380;44.022;2023-01-19T12:21:06;101826.31;;;0.65;38.41
77047;BME280;65977;56.380;44.022;2023-01-19T12:26:43;101852.81;;;0.79;37.90
77047;BME280;65977;56.380;44.022;2023-01-19T12:29:14;101862.28;;;0.83;37.90
77047;BME280;65977;56.380;44.022;2023-01-19T12:31:41;101866.56;;;0.84;37.90
77047;BME280;65977;56.380;44.022;2023-01-19T12:36:59;101857.44;;;0.68;37.90
77047;BME280;65977;56.380;44.022;2023-01-19T12:39:27;101855.84;;;0.62;38.52
77047;BME280;65977;56.380;44.022;2023-01-19T12:42:10;101867.53;;;0.45;38.54
77047;BME280;65977;56.380;44.022;2023-01-19T12:44:38;101860.47;;;0.50;39.23
77047;BME280;65977;56.380;44.022;2023-01-19T12:52:31;101860.84;;;0.35;39.60
77047;BME280;65977;56.380;44.022;2023-01-19T13:02:50;101856.84;;;0.19;40.10
77047;BME280;65977;56.380;44.022;2023-01-19T13:18:54;101862.38;;;0.04;40.52
77047;BME280;65977;56.380;44.022;2023-01-19T13:21:41;101870.06;;;0.10;40.80
77047;BME280;65977;56.380;44.022;2023-01-19T13:24:11;101882.19;;;0.09;40.50
77047;BME280;65977;56.380;44.022;2023-01-19T13:26:51;101873.47;;;0.12;40.67
77047;BME280;65977;56.380;44.022;2023-01-19T13:29:35;101886.41;;;0.15;40.06
77047;BME280;65977;56.380;44.022;2023-01-19T13:32:16;101864.72;;;0.16;40.61
77047;BME280;65977;56.380;44.022;2023-01-19T13:34:51;101875.09;;;0.17;40.29
77047;BME280;65977;56.380;44.022;2023-01-19T13:37:20;101862.97;;;0.18;40.29
77047;BME280;65977;56.380;44.022;2023-01-19T13:39:48;101845.59;;;0.20;40.53
77047;BME280;65977;56.380;44.022;2023-01-19T13:42:24;101852.41;;;0.24;40.67
77047;BME280;65977;56.380;44.022;2023-01-19T13:44:53;101847.19;;;0.25;40.25
77047;BME280;65977;56.380;44.022;2023-01-19T13:47:31;101846.34;;;0.25;40.98
77047;BME280;65977;56.380;44.022;2023-01-19T13:50:00;101842.06;;;0.21;41.16
77047;BME280;65977;56.380;44.022;2023-01-19T13:52:27;101849.00;;;0.22;41.13
77047;BME280;65977;56.380;44.022;2023-01-19T13:55:01;101839.88;;;0.04;41.59
77047;BME280;65977;56.380;44.022;2023-01-19T13:57:42;101835.47;;;0.08;41.11
77047;BME280;65977;56.380;44.022;2023-01-19T14:02:49;101837.91;;;0.15;41.68
77047;BME280;65977;56.380;44.022;2023-01-19T14:15:40;101818.56;;;0.27;41.14
77047;BME280;65977;56.380;44.022;2023-01-19T14:20:32;101817.56;;;0.31;41.45
77047;BME280;65977;56.380;44.022;2023-01-19T14:23:01;101833.19;;;0.31;41.45
77047;BME280;65977;56.380;44.022;2023-01-19T14:25:29;101814.41;;;0.20;41.35
77047;BME280;65977;56.380;44.022;2023-01-19T14:28:33;101847.22;;;0.24;41.29
77047;BME280;65977;56.380;44.022;2023-01-19T14:31:22;101885.44;;;0.19;41.52
77047;BME280;65977;56.380;44.022;2023-01-19T14:33:50;101853.16;;;0.29;41.56
77047;BME280;65977;56.380;44.022;2023-01-19T14:38:45;101870.44;;;0.31;41.24
77047;BME280;65977;56.380;44.022;2023-01-19T14:41:25;101849.69;;;0.30;41.35
77047;BME280;65977;56.380;44.022;2023-01-19T14:43:52;101862.88;;;0.21;41.90